Data for 01/21/2017

Time Sea-Level Adjusted Pressure Absolute Pressure Temperature Relative Humidity Dew Point   
(mb) (inHg) (mb) (inHg) (C) (F) (%) (C) (F)
00:05 998 29.47 827 24.42 -4 24.9 56 -11.6 11.1
00:10 998 29.47 827 24.42 -3.9 24.9 55 -11.7 10.9
00:15 998 29.47 827 24.42 -3.8 25.2 54 -11.8 10.8
00:20 998 29.47 827 24.42 -3.7 25.4 54 -11.8 10.8
00:25 998 29.47 827 24.42 -3.7 25.3 53 -11.9 10.6
00:30 998 29.47 827 24.42 -3.9 24.9 54 -11.9 10.6
00:35 998 29.47 827 24.42 -4.2 24.4 55 -12.1 10.3
00:40 998 29.47 827 24.42 -4.4 24.1 55 -12.1 10.3
00:45 998 29.47 827 24.42 -4.6 23.7 56 -12 10.4
00:50 998 29.47 827 24.42 -4.6 23.7 56 -12.1 10.3
00:55 998 29.47 827 24.42 -4.5 24 56 -12 10.4
01:00 998 29.47 827 24.42 -4.4 24.1 55 -12.1 10.2
01:05 998 29.47 827 24.42 -4.4 24 56 -12 10.4
01:10 998 29.47 827 24.42 -4.6 23.8 56 -12.1 10.3
01:15 998 29.47 827 24.42 -4.6 23.7 56 -12 10.4
01:20 998 29.47 827 24.42 -4.7 23.5 56 -12.1 10.2
01:25 998 29.47 827 24.42 -4.7 23.6 56 -12.1 10.2
01:30 998 29.47 827 24.42 -4.7 23.6 55 -12.3 9.8
01:35 998 29.47 827 24.42 -4.7 23.6 55 -12.4 9.7
01:40 998 29.47 827 24.42 -4.6 23.7 55 -12.2 10
01:45 998 29.47 827 24.42 -4.6 23.7 56 -12.2 10
01:50 998 29.47 827 24.42 -4.5 23.9 54 -12.4 9.6
01:55 998 29.47 827 24.42 -4.4 24 54 -12.3 9.9
02:00 998 29.47 827 24.42 -4.5 24 55 -12.3 9.9
02:05 998 29.47 827 24.42 -4.6 23.8 54 -12.5 9.6
02:10 998 29.47 827 24.42 -4.6 23.8 54 -12.5 9.6
02:15 998 29.47 827 24.42 -4.7 23.6 54 -12.5 9.5
02:20 998 29.47 827 24.42 -4.7 23.5 55 -12.5 9.5
02:25 998 29.47 827 24.42 -4.9 23.2 55 -12.5 9.4
02:30 997 29.44 827 24.42 -5.2 22.7 56 -12.6 9.4
02:35 997 29.44 827 24.42 -5 23.1 56 -12.4 9.7
02:40 997 29.44 826 24.39 -4.8 23.4 57 -12.2 10.1
02:45 997 29.44 826 24.39 -4.9 23.2 57 -12.2 10
02:50 997 29.44 826 24.39 -4.9 23.1 57 -12.2 10
02:55 997 29.44 826 24.39 -4.9 23.2 57 -12.2 10
03:00 997 29.44 826 24.39 -4.9 23.1 57 -12.3 9.9
03:05 997 29.44 826 24.39 -5 22.9 58 -12.1 10.2
03:10 997 29.44 826 24.39 -5.4 22.4 58 -12.3 9.8
03:15 997 29.44 826 24.39 -5.3 22.5 58 -12.3 9.8
03:20 997 29.44 826 24.39 -5.3 22.5 58 -12.3 9.9
03:25 997 29.44 826 24.39 -5.3 22.5 58 -12.3 9.9
03:30 997 29.44 826 24.39 -4.9 23.2 56 -12.3 9.9
03:35 997 29.44 826 24.39 -4.5 24 55 -12.2 10.1
03:40 997 29.44 826 24.39 -4.3 24.3 54 -12.1 10.1
03:45 997 29.44 826 24.39 -4.4 24 55 -12.1 10.3
03:50 997 29.44 826 24.39 -4.5 24 56 -12.1 10.3
03:55 997 29.44 826 24.39 -4.6 23.7 56 -12.2 10.1
04:00 997 29.44 826 24.39 -5.1 22.9 59 -12 10.5
04:05 997 29.44 826 24.39 -5.5 22.1 62 -11.6 11.1
04:10 997 29.44 826 24.39 -5.5 22.2 59 -12.3 9.9
04:15 997 29.44 826 24.39 -5.3 22.5 58 -12.4 9.7
04:20 997 29.44 826 24.39 -5.6 22 58 -12.5 9.4
04:25 997 29.44 826 24.39 -5.2 22.6 57 -12.4 9.7
04:30 997 29.44 826 24.39 -5.5 22.2 59 -12.3 9.9
04:35 997 29.44 826 24.39 -5.4 22.3 58 -12.5 9.5
04:40 997 29.44 826 24.39 -5 23 58 -12 10.5
04:45 997 29.44 826 24.39 -5.6 22 60 -12.2 10
04:50 997 29.44 826 24.39 -5.6 21.9 59 -12.4 9.7
04:55 997 29.44 826 24.39 -5.8 21.6 59 -12.5 9.5
05:00 997 29.44 826 24.39 -5.8 21.6 59 -12.6 9.4
05:05 997 29.44 826 24.39 -6.4 20.5 61 -12.8 9
05:10 997 29.44 826 24.39 -5.8 21.6 60 -12.5 9.6
05:15 997 29.44 826 24.39 -5.3 22.4 59 -12.1 10.3
05:20 997 29.44 826 24.39 -5.1 22.9 58 -12.1 10.2
05:25 997 29.44 826 24.39 -5 22.9 58 -12.1 10.2
05:30 997 29.44 826 24.39 -5.2 22.7 59 -12.1 10.3
05:35 997 29.44 827 24.42 -5.1 22.8 58 -12.2 10.1
05:40 997 29.44 827 24.42 -5.3 22.5 58 -12.3 9.8
05:45 997 29.44 826 24.39 -6.1 21 62 -12.2 10
05:50 997 29.44 826 24.39 -6.1 21.1 61 -12.4 9.7
05:55 997 29.44 826 24.39 -5.9 21.3 61 -12.2 10
06:00 997 29.44 826 24.39 -5.7 21.7 59 -12.5 9.5
06:05 997 29.44 826 24.39 -7.3 18.8 66 -12.7 9.2
06:10 997 29.44 826 24.39 -6.9 19.6 63 -12.8 9
06:15 997 29.44 826 24.39 -6.8 19.8 64 -12.5 9.5
06:20 997 29.44 826 24.39 -6.6 20.1 61 -12.8 8.9
06:25 997 29.44 826 24.39 -5 23 57 -12.2 10
06:30 997 29.44 826 24.39 -4.7 23.5 56 -12.1 10.2
06:35 997 29.44 826 24.39 -5.9 21.4 61 -12.3 9.8
06:40 997 29.44 826 24.39 -5.6 21.9 59 -12.5 9.5
06:45 997 29.44 827 24.42 -5.8 21.6 60 -12.4 9.8
06:50 997 29.44 827 24.42 -5.9 21.4 60 -12.4 9.8
06:55 997 29.44 827 24.42 -5.3 22.4 58 -12.3 9.8
07:00 997 29.44 827 24.42 -5.3 22.4 59 -12.3 9.9
07:05 997 29.44 827 24.42 -5.5 22.2 61 -11.8 10.7
07:10 997 29.44 827 24.42 -6.3 20.7 63 -12.3 9.8
07:15 997 29.44 827 24.42 -6.6 20.1 64 -12.3 9.8
07:20 997 29.44 827 24.42 -6.7 20 65 -12.3 9.9
07:25 998 29.47 827 24.42 -7.2 19 66 -12.5 9.6
07:30 998 29.47 827 24.42 -7.3 18.9 64 -12.9 8.8
07:35 998 29.47 827 24.42 -7.4 18.7 66 -12.8 9
07:40 998 29.47 827 24.42 -7.6 18.4 66 -12.9 8.8
07:45 998 29.47 827 24.42 -7.6 18.4 65 -13 8.7
07:50 998 29.47 827 24.42 -7.6 18.3 65 -13.1 8.4
07:55 998 29.47 827 24.42 -8 17.6 66 -13.2 8.2
08:00 998 29.47 827 24.42 -8.2 17.2 68 -13.1 8.4
08:05 998 29.47 827 24.42 -8.2 17.2 69 -12.9 8.9
08:10 998 29.47 827 24.42 -8.2 17.2 69 -12.9 8.8
08:15 998 29.47 827 24.42 -8.5 16.8 71 -12.8 9
08:20 998 29.47 827 24.42 -8.2 17.2 71 -12.7 9.2
08:25 998 29.47 827 24.42 -8.1 17.4 71 -12.5 9.5
08:30 998 29.47 827 24.42 -7.9 17.8 72 -12 10.4
08:35 998 29.47 827 24.42 -7.5 18.5 69 -12.2 10
08:40 998 29.47 827 24.42 -7.9 17.9 70 -12.3 9.8
08:45 998 29.47 828 24.45 -8 17.6 72 -12.2 10.1
08:50 998 29.47 828 24.45 -7.4 18.7 68 -12.4 9.6
08:55 998 29.47 828 24.45 -7.6 18.3 70 -12.2 10
09:00 999 29.5 828 24.45 -7.8 18 69 -12.6 9.3
09:05 999 29.5 828 24.45 -8 17.6 69 -12.7 9.1
09:10 999 29.5 828 24.45 -8.2 17.2 69 -12.9 8.7
09:15 999 29.5 828 24.45 -8.6 16.5 70 -13.2 8.3
09:20 999 29.5 828 24.45 -8.3 17 72 -12.5 9.5
09:25 999 29.5 828 24.45 -7.8 18.1 69 -12.4 9.6
09:30 999 29.5 828 24.45 -7.7 18.2 67 -12.8 9
09:35 999 29.5 828 24.45 -7.9 17.7 69 -12.7 9.2
09:40 999 29.5 828 24.45 -7.6 18.2 68 -12.5 9.5
09:45 999 29.5 828 24.45 -7.4 18.6 68 -12.4 9.6
09:50 999 29.5 828 24.45 -7.3 18.9 67 -12.5 9.6
09:55 999 29.5 829 24.48 -7 19.4 65 -12.5 9.5
10:00 999 29.5 829 24.48 -6.7 20 64 -12.4 9.7
10:05 1000 29.53 829 24.48 -6.4 20.5 63 -12.3 9.8
10:10 1000 29.53 829 24.48 -6.4 20.5 63 -12.4 9.7
10:15 1000 29.53 829 24.48 -6.5 20.4 62 -12.6 9.4
10:20 1000 29.53 829 24.48 -6.1 21.1 60 -12.6 9.4
10:25 1000 29.53 829 24.48 -5.6 22 59 -12.4 9.6
10:30 1000 29.53 829 24.48 -4.9 23.2 56 -12.5 9.6
10:35 1000 29.53 829 24.48 -4.3 24.2 54 -12.2 10
10:40 1000 29.53 829 24.48 -3.7 25.3 53 -12 10.4
10:45 1000 29.53 829 24.48 -3.3 26 51 -12 10.4
10:50 1000 29.53 829 24.48 -3.2 26.2 51 -11.9 10.6
10:55 1000 29.53 829 24.48 -2.4 27.6 49 -11.8 10.7
11:00 1000 29.53 829 24.48 -1.7 28.9 47 -11.6 11.1
11:05 1000 29.53 829 24.48 -1.1 30 47 -11.1 12
11:10 1000 29.53 829 24.48 -0.8 30.6 46 -10.9 12.3
11:15 1000 29.53 829 24.48 -1.3 29.7 49 -10.7 12.7
11:20 1000 29.53 829 24.48 -2.2 28 51 -11.1 11.9
11:25 1000 29.53 830 24.51 -2.4 27.6 51 -11.2 11.8
11:30 1000 29.53 830 24.51 -2.6 27.3 52 -11.3 11.7
11:35 1000 29.53 830 24.51 -2.4 27.6 51 -11.2 11.8
11:40 1000 29.53 830 24.51 -1.7 29 49 -10.9 12.3
11:45 1001 29.56 830 24.51 -1.2 29.8 49 -10.7 12.7
11:50 1001 29.56 830 24.51 -1.3 29.7 48 -11 12.3
11:55 1001 29.56 830 24.51 -1.1 29.9 48 -10.7 12.7
12:00 1001 29.56 830 24.51 -1 30.3 48 -10.6 12.9
12:05 1001 29.56 830 24.51 -0.8 30.5 48 -10.6 12.9
12:10 1001 29.56 830 24.51 -1.2 29.8 50 -10.3 13.5
12:15 1001 29.56 830 24.51 -1.5 29.3 49 -10.8 12.6
12:20 1001 29.56 830 24.51 -1.3 29.6 49 -10.8 12.6
12:25 1001 29.56 830 24.51 -0.9 30.5 48 -10.6 12.9
12:30 1001 29.56 830 24.51 -0.7 30.7 48 -10.4 13.4
12:35 1001 29.56 830 24.51 -0.8 30.6 49 -10.3 13.4
12:40 1001 29.56 830 24.51 -0.5 31.1 49 -10 14
12:45 1001 29.56 830 24.51 -0.6 31 51 -9.5 14.9
12:50 1001 29.56 830 24.51 -1 30.3 49 -10.3 13.5
12:55 1001 29.56 830 24.51 -1.5 29.3 52 -10.2 13.6
13:00 1001 29.56 830 24.51 -2 28.4 54 -10.2 13.7
13:05 1001 29.56 830 24.51 -2.4 27.8 55 -10.3 13.5
13:10 1001 29.56 830 24.51 -3.1 26.5 57 -10.5 13.1
13:15 1001 29.56 830 24.51 -3.4 25.9 55 -11.2 11.8
13:20 1001 29.56 830 24.51 -3.8 25.2 59 -10.7 12.7
13:25 1001 29.56 830 24.51 -3.8 25.1 55 -11.5 11.3
13:30 1001 29.56 830 24.51 -3.8 25.1 59 -10.8 12.6
13:35 1001 29.56 830 24.51 -3.6 25.6 56 -11.2 11.8
13:40 1001 29.56 830 24.51 -2.4 27.7 52 -11 12.3
13:45 1001 29.56 830 24.51 -1.7 29 51 -10.6 13
13:50 1001 29.56 830 24.51 -0.8 30.6 48 -10.3 13.4
13:55 1001 29.56 830 24.51 -0.4 31.2 48 -10.3 13.5
14:00 1001 29.56 831 24.54 -0.7 30.8 48 -10.4 13.3
14:05 1001 29.56 831 24.54 -1.1 30.1 50 -10.2 13.6
14:10 1001 29.56 831 24.54 -1.1 30 49 -10.6 12.9
14:15 1001 29.56 831 24.54 -1.6 29.2 52 -10.1 13.9
14:20 1001 29.56 831 24.54 -2.2 28 54 -10.3 13.5
14:25 1001 29.56 831 24.54 -2.1 28.3 52 -10.8 12.6
14:30 1002 29.59 831 24.54 -1.7 28.9 51 -10.6 12.9
14:35 1002 29.59 831 24.54 -1.2 29.8 49 -10.7 12.8
14:40 1002 29.59 831 24.54 -0.5 31.1 47 -10.4 13.2
14:45 1002 29.59 831 24.54 -0.3 31.5 47 -10.2 13.6
14:50 1002 29.59 831 24.54 -0.4 31.3 47 -10.3 13.5
14:55 1002 29.59 831 24.54 -0.9 30.4 48 -10.6 13
15:00 1002 29.59 831 24.54 -0.7 30.8 46 -10.9 12.4
15:05 1002 29.59 831 24.54 -0.2 31.6 46 -10.6 13
15:10 1002 29.59 831 24.54 0 32.1 45 -10.5 13
15:15 1002 29.59 831 24.54 0.1 32.2 46 -10.1 13.9
15:20 1002 29.59 831 24.54 -0.1 31.7 47 -10.1 13.8
15:25 1002 29.59 832 24.57 -0.2 31.6 47 -10.1 13.8
15:30 1002 29.59 832 24.57 -0.7 30.7 51 -9.8 14.4
15:35 1002 29.59 832 24.57 -1.3 29.7 53 -9.7 14.6
15:40 1003 29.62 832 24.57 -1.5 29.3 52 -10.1 13.8
15:45 1003 29.62 832 24.57 -0.9 30.4 47 -10.8 12.6
15:50 1003 29.62 832 24.57 -0.6 30.9 49 -10.2 13.7
15:55 1003 29.62 832 24.57 -0.7 30.8 49 -10 13.9
16:00 1003 29.62 832 24.57 -0.7 30.8 50 -9.8 14.3
16:05 1003 29.62 832 24.57 -0.6 30.9 51 -9.5 15
16:10 1003 29.62 832 24.57 -0.4 31.2 49 -10 14
16:15 1003 29.62 832 24.57 0.4 32.7 45 -10.2 13.7
16:20 1003 29.62 832 24.57 1 33.8 44 -10.1 13.9
16:25 1003 29.62 833 24.6 1 33.9 43 -10.1 13.7
16:30 1003 29.62 833 24.6 1.2 34.1 44 -9.7 14.5
16:35 1004 29.65 833 24.6 0.7 33.3 46 -9.6 14.8
16:40 1004 29.65 833 24.6 0.3 32.6 46 -9.9 14.2
16:45 1004 29.65 833 24.6 0.4 32.6 45 -10.3 13.5
16:50 1004 29.65 833 24.6 0.6 33.2 45 -10 14.1
16:55 1004 29.65 833 24.6 0.8 33.4 45 -9.9 14.2
17:00 1004 29.65 833 24.6 0.8 33.4 45 -9.8 14.3
17:05 1004 29.65 833 24.6 1 33.7 46 -9.5 14.9
17:10 1004 29.65 833 24.6 0.9 33.6 46 -9.4 15.1
17:15 1004 29.65 833 24.6 0.6 33.1 48 -9.3 15.3
17:20 1004 29.65 833 24.6 0.1 32.2 50 -9.3 15.3
17:25 1004 29.65 834 24.63 0.5 32.8 48 -9.3 15.2
17:30 1004 29.65 834 24.63 0.9 33.6 46 -9.4 15
17:35 1004 29.65 834 24.63 1.1 33.9 47 -9.1 15.6
17:40 1005 29.68 834 24.63 0.7 33.3 49 -8.8 16.1
17:45 1005 29.68 834 24.63 0.4 32.7 48 -9.3 15.2
17:50 1005 29.68 834 24.63 -0.1 31.7 50 -9.4 15.1
17:55 1005 29.68 834 24.63 -0.5 31.1 51 -9.4 15
18:00 1005 29.68 834 24.63 -0.7 30.7 52 -9.3 15.2
18:05 1005 29.68 834 24.63 -1 30.3 54 -9.2 15.4
18:10 1005 29.68 834 24.63 -1.1 29.9 53 -9.5 14.9
18:15 1005 29.68 834 24.63 -1.4 29.5 56 -9.1 15.7
18:20 1005 29.68 834 24.63 -1.5 29.4 56 -9.1 15.7
18:25 1005 29.68 834 24.63 -1.5 29.3 57 -9.1 15.7
18:30 1005 29.68 835 24.66 -1.7 29 58 -9 15.8
18:35 1005 29.68 835 24.66 -1.7 28.9 57 -9.2 15.4
18:40 1006 29.71 835 24.66 -1.7 28.9 58 -9 15.7
18:45 1006 29.71 835 24.66 -1.8 28.8 58 -8.9 16
18:50 1006 29.71 835 24.66 -2.1 28.2 58 -9.2 15.4
18:55 1006 29.71 835 24.66 -2.3 27.8 60 -9.1 15.7
19:00 1006 29.71 835 24.66 -2.3 27.8 61 -8.9 16
19:05 1006 29.71 835 24.66 -2.3 27.9 60 -9.1 15.7
19:10 1006 29.71 835 24.66 -2.4 27.7 59 -9.3 15.3
19:15 1006 29.71 835 24.66 -2.5 27.6 59 -9.5 14.9
19:20 1006 29.71 835 24.66 -2.4 27.6 60 -9.3 15.3
19:25 1006 29.71 835 24.66 -2.2 28 61 -8.9 16.1
19:30 1006 29.71 835 24.66 -2.3 27.9 60 -9 15.9
19:35 1006 29.71 835 24.66 -2.2 28 61 -8.8 16.1
19:40 1006 29.71 836 24.69 -2.1 28.3 60 -8.9 16.1
19:45 1006 29.71 836 24.69 -2.1 28.2 59 -9 15.8
19:50 1006 29.71 836 24.69 -2.1 28.2 60 -8.9 15.9
19:55 1007 29.74 836 24.69 -2.1 28.2 60 -8.9 16
20:00 1007 29.74 836 24.69 -2.1 28.1 60 -9 15.8
20:05 1007 29.74 836 24.69 -2.3 27.9 61 -8.8 16.1
20:10 1007 29.74 836 24.69 -2.5 27.5 60 -9.3 15.3
20:15 1007 29.74 836 24.69 -2.7 27.2 60 -9.4 15
20:20 1007 29.74 836 24.69 -2.5 27.5 59 -9.5 14.9
20:25 1007 29.74 836 24.69 -2.6 27.4 59 -9.6 14.7
20:30 1007 29.74 836 24.69 -2.7 27.2 59 -9.7 14.5
20:35 1007 29.74 836 24.69 -2.8 27 57 -10.1 13.7
20:40 1007 29.74 836 24.69 -2.8 27 58 -10 14.1
20:45 1007 29.74 837 24.72 -2.8 27 59 -9.7 14.5
20:50 1007 29.74 837 24.72 -2.7 27.1 60 -9.4 15.1
20:55 1007 29.74 837 24.72 -2.6 27.3 59 -9.5 14.9
21:00 1007 29.74 837 24.72 -2.7 27.1 60 -9.4 15.2
21:05 1007 29.74 837 24.72 -2.9 26.8 64 -8.9 16
21:10 1008 29.77 837 24.72 -3 26.7 62 -9.2 15.5
21:15 1008 29.77 837 24.72 -2.9 26.8 62 -9.2 15.4
21:20 1008 29.77 837 24.72 -2.9 26.8 61 -9.4 15.1
21:25 1008 29.77 837 24.72 -2.7 27.1 60 -9.5 14.8
21:30 1008 29.77 837 24.72 -2.6 27.3 59 -9.6 14.7
21:35 1008 29.77 837 24.72 -2.6 27.4 60 -9.2 15.4
21:40 1008 29.77 837 24.72 -2.6 27.3 64 -8.6 16.6
21:45 1008 29.77 837 24.72 -2.8 27 63 -8.9 16
21:50 1008 29.77 838 24.75 -2.8 26.9 62 -9.1 15.6
21:55 1008 29.77 838 24.75 -2.7 27.2 63 -8.8 16.1
22:00 1008 29.77 838 24.75 -2.6 27.3 62 -8.8 16.1
22:05 1008 29.77 838 24.75 -2.6 27.3 62 -9 15.8
22:10 1009 29.8 838 24.75 -2.6 27.3 65 -8.3 17
22:15 1009 29.8 838 24.75 -2.8 27 65 -8.5 16.7
22:20 1009 29.8 838 24.75 -2.9 26.8 66 -8.3 17
22:25 1009 29.8 838 24.75 -3.1 26.4 65 -8.8 16.2
22:30 1009 29.8 838 24.75 -3.2 26.3 65 -8.8 16.1
22:35 1009 29.8 838 24.75 -3.2 26.2 64 -9.1 15.7
22:40 1009 29.8 838 24.75 -3.2 26.3 63 -9.3 15.2
22:45 1009 29.8 838 24.75 -2.9 26.8 62 -9.2 15.4
22:50 1009 29.8 838 24.75 -2.9 26.8 62 -9.1 15.6
22:55 1009 29.8 838 24.75 -2.7 27.1 61 -9.2 15.5
23:00 1009 29.8 838 24.75 -2.6 27.4 60 -9.3 15.3
23:05 1009 29.8 838 24.75 -2.3 27.8 61 -8.8 16.2
23:10 1009 29.8 838 24.75 -2.3 27.8 63 -8.5 16.8
23:15 1009 29.8 838 24.75 -2.4 27.6 63 -8.6 16.5
23:20 1009 29.8 838 24.75 -2.6 27.3 62 -9 15.8
23:25 1009 29.8 838 24.75 -2.4 27.6 63 -8.6 16.6
23:30 1009 29.8 839 24.78 -2.4 27.6 64 -8.2 17.2
23:35 1009 29.8 839 24.78 -2.5 27.6 63 -8.5 16.7
23:40 1009 29.8 839 24.78 -2.6 27.4 63 -8.7 16.3
23:45 1010 29.83 839 24.78 -2.5 27.5 62 -8.7 16.3
23:50 1010 29.83 839 24.78 -2.4 27.7 61 -8.9 16.1
23:55 1010 29.83 839 24.78 -2.2 28 60 -9.1 15.7
24:00 1010 29.83 839 24.78 -2.1 28.3 58 -9.2 15.5